sensor_id;sensor_type;location;lat;lon;timestamp;pressure;altitude;pressure_sealevel;temperature;humidity
23635;BME280;11994;51.038;16.974;2023-04-22T00:02:03;100102.89;;;10.02;58.65
23635;BME280;11994;51.038;16.974;2023-04-22T00:04:28;100102.34;;;9.96;58.93
23635;BME280;11994;51.038;16.974;2023-04-22T00:06:54;100103.67;;;9.90;59.20
23635;BME280;11994;51.038;16.974;2023-04-22T00:09:19;100101.45;;;9.89;59.52
23635;BME280;11994;51.038;16.974;2023-04-22T00:11:44;100100.32;;;9.85;59.60
23635;BME280;11994;51.038;16.974;2023-04-22T00:14:10;100095.71;;;9.80;59.86
23635;BME280;11994;51.038;16.974;2023-04-22T00:16:35;100094.77;;;9.75;59.97
23635;BME280;11994;51.038;16.974;2023-04-22T00:19:00;100096.09;;;9.71;59.92
23635;BME280;11994;51.038;16.974;2023-04-22T00:21:25;100093.02;;;9.67;59.99
23635;BME280;11994;51.038;16.974;2023-04-22T00:23:51;100090.80;;;9.65;59.95
23635;BME280;11994;51.038;16.974;2023-04-22T00:26:16;100088.95;;;9.61;60.07
23635;BME280;11994;51.038;16.974;2023-04-22T00:28:41;100089.72;;;9.58;60.17
23635;BME280;11994;51.038;16.974;2023-04-22T00:31:07;100093.98;;;9.56;60.20
23635;BME280;11994;51.038;16.974;2023-04-22T00:33:32;100086.91;;;9.51;60.26
23635;BME280;11994;51.038;16.974;2023-04-22T00:35:57;100088.77;;;9.46;60.48
23635;BME280;11994;51.038;16.974;2023-04-22T00:38:23;100090.02;;;9.44;60.56
23635;BME280;11994;51.038;16.974;2023-04-22T00:40:48;100090.04;;;9.43;60.98
23635;BME280;11994;51.038;16.974;2023-04-22T00:43:14;100089.41;;;9.40;61.48
23635;BME280;11994;51.038;16.974;2023-04-22T00:45:40;100089.70;;;9.36;61.54
23635;BME280;11994;51.038;16.974;2023-04-22T00:48:06;100094.66;;;9.31;61.38
23635;BME280;11994;51.038;16.974;2023-04-22T00:50:32;100092.87;;;9.25;61.35
23635;BME280;11994;51.038;16.974;2023-04-22T00:52:57;100098.73;;;9.20;61.28
23635;BME280;11994;51.038;16.974;2023-04-22T00:55:22;100099.14;;;9.08;61.78
23635;BME280;11994;51.038;16.974;2023-04-22T00:57:48;100098.29;;;8.98;61.97
23635;BME280;11994;51.038;16.974;2023-04-22T01:00:15;100096.15;;;8.91;62.21
23635;BME280;11994;51.038;16.974;2023-04-22T01:02:40;100098.98;;;8.89;62.51
23635;BME280;11994;51.038;16.974;2023-04-22T01:05:06;100102.20;;;8.85;62.56
23635;BME280;11994;51.038;16.974;2023-04-22T01:07:34;100098.83;;;8.79;62.82
23635;BME280;11994;51.038;16.974;2023-04-22T01:10:00;100095.71;;;8.77;62.98
23635;BME280;11994;51.038;16.974;2023-04-22T01:12:26;100095.84;;;8.70;63.05
23635;BME280;11994;51.038;16.974;2023-04-22T01:14:51;100094.23;;;8.63;63.18
23635;BME280;11994;51.038;16.974;2023-04-22T01:17:16;100094.45;;;8.60;63.35
23635;BME280;11994;51.038;16.974;2023-04-22T01:19:43;100094.62;;;8.60;63.66
23635;BME280;11994;51.038;16.974;2023-04-22T01:22:08;100097.50;;;8.55;63.80
23635;BME280;11994;51.038;16.974;2023-04-22T01:24:36;100097.96;;;8.48;64.27
23635;BME280;11994;51.038;16.974;2023-04-22T01:27:02;100094.28;;;8.39;64.74
23635;BME280;11994;51.038;16.974;2023-04-22T01:29:27;100099.23;;;8.35;65.00
23635;BME280;11994;51.038;16.974;2023-04-22T01:31:52;100095.31;;;8.40;64.78
23635;BME280;11994;51.038;16.974;2023-04-22T01:34:18;100095.25;;;8.44;64.96
23635;BME280;11994;51.038;16.974;2023-04-22T01:36:43;100090.16;;;8.46;65.14
23635;BME280;11994;51.038;16.974;2023-04-22T01:39:09;100087.64;;;8.51;65.21
23635;BME280;11994;51.038;16.974;2023-04-22T01:41:34;100087.38;;;8.56;65.11
23635;BME280;11994;51.038;16.974;2023-04-22T01:43:59;100086.80;;;8.59;64.98
23635;BME280;11994;51.038;16.974;2023-04-22T01:46:27;100087.26;;;8.62;64.86
23635;BME280;11994;51.038;16.974;2023-04-22T01:48:52;100086.19;;;8.64;64.83
23635;BME280;11994;51.038;16.974;2023-04-22T01:51:18;100086.70;;;8.64;64.79
23635;BME280;11994;51.038;16.974;2023-04-22T01:53:47;100082.55;;;8.63;64.60
23635;BME280;11994;51.038;16.974;2023-04-22T01:56:13;100081.27;;;8.66;64.75
23635;BME280;11994;51.038;16.974;2023-04-22T01:58:38;100080.74;;;8.66;64.68
23635;BME280;11994;51.038;16.974;2023-04-22T02:01:04;100075.23;;;8.62;64.52
23635;BME280;11994;51.038;16.974;2023-04-22T02:03:30;100077.36;;;8.60;64.64
23635;BME280;11994;51.038;16.974;2023-04-22T02:05:55;100076.02;;;8.57;64.65
23635;BME280;11994;51.038;16.974;2023-04-22T02:08:20;100068.25;;;8.53;64.65
23635;BME280;11994;51.038;16.974;2023-04-22T02:10:46;100067.73;;;8.54;64.79
23635;BME280;11994;51.038;16.974;2023-04-22T02:13:11;100066.86;;;8.52;64.82
23635;BME280;11994;51.038;16.974;2023-04-22T02:15:36;100063.45;;;8.49;64.84
23635;BME280;11994;51.038;16.974;2023-04-22T02:18:03;100063.48;;;8.47;65.01
23635;BME280;11994;51.038;16.974;2023-04-22T02:20:28;100058.25;;;8.47;64.98
23635;BME280;11994;51.038;16.974;2023-04-22T02:22:53;100058.61;;;8.46;65.00
23635;BME280;11994;51.038;16.974;2023-04-22T02:25:19;100060.73;;;8.45;65.01
23635;BME280;11994;51.038;16.974;2023-04-22T02:27:45;100058.66;;;8.43;65.10
23635;BME280;11994;51.038;16.974;2023-04-22T02:30:11;100061.83;;;8.43;65.13
23635;BME280;11994;51.038;16.974;2023-04-22T02:32:36;100056.25;;;8.41;65.18
23635;BME280;11994;51.038;16.974;2023-04-22T02:35:03;100064.81;;;8.40;65.20
23635;BME280;11994;51.038;16.974;2023-04-22T02:37:29;100060.14;;;8.39;65.27
23635;BME280;11994;51.038;16.974;2023-04-22T02:39:54;100058.41;;;8.38;65.46
23635;BME280;11994;51.038;16.974;2023-04-22T02:42:20;100058.09;;;8.36;65.50
23635;BME280;11994;51.038;16.974;2023-04-22T02:44:45;100051.86;;;8.33;65.54
23635;BME280;11994;51.038;16.974;2023-04-22T02:47:10;100051.73;;;8.31;65.73
23635;BME280;11994;51.038;16.974;2023-04-22T02:49:35;100050.56;;;8.28;65.66
23635;BME280;11994;51.038;16.974;2023-04-22T02:52:01;100046.09;;;8.25;65.70
23635;BME280;11994;51.038;16.974;2023-04-22T02:54:26;100048.59;;;8.21;65.67
23635;BME280;11994;51.038;16.974;2023-04-22T02:56:51;100047.55;;;8.21;65.84
23635;BME280;11994;51.038;16.974;2023-04-22T02:59:16;100042.17;;;8.17;65.69
23635;BME280;11994;51.038;16.974;2023-04-22T03:01:41;100047.18;;;8.10;65.95
23635;BME280;11994;51.038;16.974;2023-04-22T03:04:07;100045.52;;;8.04;65.98
23635;BME280;11994;51.038;16.974;2023-04-22T03:06:32;100048.23;;;7.98;66.07
23635;BME280;11994;51.038;16.974;2023-04-22T03:08:57;100052.40;;;7.88;66.25
23635;BME280;11994;51.038;16.974;2023-04-22T03:11:22;100046.04;;;7.83;66.55
23635;BME280;11994;51.038;16.974;2023-04-22T03:13:48;100046.26;;;7.80;66.86
23635;BME280;11994;51.038;16.974;2023-04-22T03:16:13;100045.39;;;7.79;66.99
23635;BME280;11994;51.038;16.974;2023-04-22T03:18:38;100043.83;;;7.80;67.29
23635;BME280;11994;51.038;16.974;2023-04-22T03:21:03;100043.85;;;7.78;67.14
23635;BME280;11994;51.038;16.974;2023-04-22T03:23:29;100042.68;;;7.74;67.09
23635;BME280;11994;51.038;16.974;2023-04-22T03:25:55;100043.13;;;7.67;67.04
23635;BME280;11994;51.038;16.974;2023-04-22T03:28:20;100045.19;;;7.58;67.18
23635;BME280;11994;51.038;16.974;2023-04-22T03:30:45;100041.63;;;7.51;67.49
23635;BME280;11994;51.038;16.974;2023-04-22T03:33:11;100042.93;;;7.45;67.58
23635;BME280;11994;51.038;16.974;2023-04-22T03:35:36;100037.23;;;7.42;67.81
23635;BME280;11994;51.038;16.974;2023-04-22T03:38:01;100038.09;;;7.43;68.15
23635;BME280;11994;51.038;16.974;2023-04-22T03:40:27;100039.16;;;7.42;68.04
23635;BME280;11994;51.038;16.974;2023-04-22T03:42:52;100040.03;;;7.40;68.16
23635;BME280;11994;51.038;16.974;2023-04-22T03:45:17;100041.27;;;7.40;68.31
23635;BME280;11994;51.038;16.974;2023-04-22T03:47:42;100038.87;;;7.36;68.29
23635;BME280;11994;51.038;16.974;2023-04-22T03:50:08;100039.27;;;7.32;68.28
23635;BME280;11994;51.038;16.974;2023-04-22T03:52:33;100033.58;;;7.28;68.48
23635;BME280;11994;51.038;16.974;2023-04-22T03:54:58;100036.89;;;7.28;68.69
23635;BME280;11994;51.038;16.974;2023-04-22T03:57:23;100040.55;;;7.28;68.76
23635;BME280;11994;51.038;16.974;2023-04-22T03:59:49;100036.05;;;7.26;68.86
23635;BME280;11994;51.038;16.974;2023-04-22T04:02:14;100038.86;;;7.24;68.75
23635;BME280;11994;51.038;16.974;2023-04-22T04:04:39;100040.02;;;7.15;68.55
23635;BME280;11994;51.038;16.974;2023-04-22T04:07:05;100039.44;;;7.06;68.85
23635;BME280;11994;51.038;16.974;2023-04-22T04:09:31;100039.84;;;7.02;69.02
23635;BME280;11994;51.038;16.974;2023-04-22T04:11:56;100038.14;;;6.99;69.59
23635;BME280;11994;51.038;16.974;2023-04-22T04:14:22;100036.73;;;6.99;69.56
23635;BME280;11994;51.038;16.974;2023-04-22T04:16:47;100035.89;;;6.97;69.83
23635;BME280;11994;51.038;16.974;2023-04-22T04:19:12;100039.37;;;6.97;69.89
23635;BME280;11994;51.038;16.974;2023-04-22T04:21:37;100035.52;;;6.99;70.40
23635;BME280;11994;51.038;16.974;2023-04-22T04:24:04;100036.36;;;7.02;70.06
23635;BME280;11994;51.038;16.974;2023-04-22T04:26:30;100037.92;;;7.01;69.86
23635;BME280;11994;51.038;16.974;2023-04-22T04:28:56;100041.38;;;7.03;69.80
23635;BME280;11994;51.038;16.974;2023-04-22T04:31:22;100038.75;;;7.05;70.39
23635;BME280;11994;51.038;16.974;2023-04-22T04:33:48;100034.51;;;7.11;70.43
23635;BME280;11994;51.038;16.974;2023-04-22T04:36:14;100029.40;;;7.17;70.35
23635;BME280;11994;51.038;16.974;2023-04-22T04:38:39;100037.03;;;7.18;70.05
23635;BME280;11994;51.038;16.974;2023-04-22T04:41:04;100040.18;;;7.16;70.27
23635;BME280;11994;51.038;16.974;2023-04-22T04:43:32;100041.72;;;7.18;70.28
23635;BME280;11994;51.038;16.974;2023-04-22T04:45:57;100045.52;;;7.19;70.26
23635;BME280;11994;51.038;16.974;2023-04-22T04:48:23;100049.86;;;7.19;70.60
23635;BME280;11994;51.038;16.974;2023-04-22T04:50:52;100048.77;;;7.24;70.87
23635;BME280;11994;51.038;16.974;2023-04-22T04:53:17;100052.70;;;7.30;71.06
23635;BME280;11994;51.038;16.974;2023-04-22T04:55:42;100050.71;;;7.36;71.30
23635;BME280;11994;51.038;16.974;2023-04-22T04:58:08;100050.61;;;7.43;71.49
23635;BME280;11994;51.038;16.974;2023-04-22T05:00:33;100053.31;;;7.49;71.42
23635;BME280;11994;51.038;16.974;2023-04-22T05:02:58;100056.16;;;7.57;71.58
23635;BME280;11994;51.038;16.974;2023-04-22T05:05:23;100057.65;;;7.63;71.38
23635;BME280;11994;51.038;16.974;2023-04-22T05:07:49;100062.81;;;7.67;71.42
23635;BME280;11994;51.038;16.974;2023-04-22T05:10:15;100061.88;;;7.71;71.63
23635;BME280;11994;51.038;16.974;2023-04-22T05:12:40;100060.36;;;7.79;71.40
23635;BME280;11994;51.038;16.974;2023-04-22T05:15:06;100059.80;;;7.83;71.15
23635;BME280;11994;51.038;16.974;2023-04-22T05:17:31;100056.95;;;7.87;71.01
23635;BME280;11994;51.038;16.974;2023-04-22T05:19:56;100058.09;;;7.91;70.74
23635;BME280;11994;51.038;16.974;2023-04-22T05:22:22;100058.89;;;7.96;71.07
23635;BME280;11994;51.038;16.974;2023-04-22T05:24:47;100053.11;;;7.98;70.97
23635;BME280;11994;51.038;16.974;2023-04-22T05:27:13;100054.60;;;8.03;71.26
23635;BME280;11994;51.038;16.974;2023-04-22T05:29:38;100057.42;;;8.11;71.44
23635;BME280;11994;51.038;16.974;2023-04-22T05:32:03;100058.51;;;8.21;71.47
23635;BME280;11994;51.038;16.974;2023-04-22T05:34:28;100062.70;;;8.31;71.51
23635;BME280;11994;51.038;16.974;2023-04-22T05:36:54;100058.13;;;8.44;71.37
23635;BME280;11994;51.038;16.974;2023-04-22T05:39:19;100057.02;;;8.58;71.36
23635;BME280;11994;51.038;16.974;2023-04-22T05:41:44;100056.91;;;8.72;71.24
23635;BME280;11994;51.038;16.974;2023-04-22T05:44:10;100057.67;;;8.87;71.34
23635;BME280;11994;51.038;16.974;2023-04-22T05:46:35;100056.73;;;9.00;71.19
23635;BME280;11994;51.038;16.974;2023-04-22T05:49:00;100053.33;;;9.13;71.07
23635;BME280;11994;51.038;16.974;2023-04-22T05:51:26;100050.61;;;9.26;70.92
23635;BME280;11994;51.038;16.974;2023-04-22T05:53:51;100052.92;;;9.41;70.79
23635;BME280;11994;51.038;16.974;2023-04-22T05:56:16;100049.64;;;9.55;70.67
23635;BME280;11994;51.038;16.974;2023-04-22T05:58:41;100047.71;;;9.71;70.41
23635;BME280;11994;51.038;16.974;2023-04-22T06:01:07;100052.20;;;9.88;70.38
23635;BME280;11994;51.038;16.974;2023-04-22T06:03:33;100053.27;;;10.03;70.21
23635;BME280;11994;51.038;16.974;2023-04-22T06:05:58;100058.13;;;10.19;70.04
23635;BME280;11994;51.038;16.974;2023-04-22T06:08:24;100061.37;;;10.37;69.89
23635;BME280;11994;51.038;16.974;2023-04-22T06:10:49;100066.10;;;10.56;69.81
23635;BME280;11994;51.038;16.974;2023-04-22T06:13:15;100064.41;;;10.74;69.69
23635;BME280;11994;51.038;16.974;2023-04-22T06:15:40;100063.25;;;10.90;69.23
23635;BME280;11994;51.038;16.974;2023-04-22T06:18:05;100063.36;;;11.06;69.25
23635;BME280;11994;51.038;16.974;2023-04-22T06:20:30;100058.29;;;11.18;69.16
23635;BME280;11994;51.038;16.974;2023-04-22T06:23:00;100054.54;;;11.27;68.70
23635;BME280;11994;51.038;16.974;2023-04-22T06:25:25;100054.11;;;11.35;68.78
23635;BME280;11994;51.038;16.974;2023-04-22T06:27:50;100053.52;;;11.56;69.11
23635;BME280;11994;51.038;16.974;2023-04-22T06:30:16;100054.69;;;11.75;68.74
23635;BME280;11994;51.038;16.974;2023-04-22T06:32:41;100053.16;;;11.90;68.80
23635;BME280;11994;51.038;16.974;2023-04-22T06:35:06;100054.16;;;12.07;68.66
23635;BME280;11994;51.038;16.974;2023-04-22T06:37:32;100055.02;;;12.19;68.08
23635;BME280;11994;51.038;16.974;2023-04-22T06:39:57;100051.13;;;12.31;67.85
23635;BME280;11994;51.038;16.974;2023-04-22T06:42:22;100053.32;;;12.43;67.66
23635;BME280;11994;51.038;16.974;2023-04-22T06:44:47;100053.05;;;12.56;67.67
23635;BME280;11994;51.038;16.974;2023-04-22T06:47:13;100054.25;;;12.62;66.77
23635;BME280;11994;51.038;16.974;2023-04-22T06:49:38;100053.71;;;12.62;66.18
23635;BME280;11994;51.038;16.974;2023-04-22T06:52:04;100056.48;;;12.74;66.51
23635;BME280;11994;51.038;16.974;2023-04-22T06:54:29;100057.46;;;12.85;66.51
23635;BME280;11994;51.038;16.974;2023-04-22T06:56:55;100060.36;;;12.93;66.18
23635;BME280;11994;51.038;16.974;2023-04-22T06:59:21;100060.52;;;12.93;66.00
23635;BME280;11994;51.038;16.974;2023-04-22T07:01:46;100059.77;;;13.05;65.99
23635;BME280;11994;51.038;16.974;2023-04-22T07:04:12;100060.80;;;13.11;65.17
23635;BME280;11994;51.038;16.974;2023-04-22T07:06:37;100057.23;;;13.12;65.49
23635;BME280;11994;51.038;16.974;2023-04-22T07:09:02;100054.40;;;13.27;65.62
23635;BME280;11994;51.038;16.974;2023-04-22T07:11:27;100052.97;;;13.42;65.22
23635;BME280;11994;51.038;16.974;2023-04-22T07:13:55;100053.36;;;13.50;64.27
23635;BME280;11994;51.038;16.974;2023-04-22T07:16:20;100050.73;;;13.54;63.82
23635;BME280;11994;51.038;16.974;2023-04-22T07:18:45;100049.20;;;13.67;64.35
23635;BME280;11994;51.038;16.974;2023-04-22T07:21:11;100051.14;;;13.84;64.46
23635;BME280;11994;51.038;16.974;2023-04-22T07:23:36;100055.27;;;13.99;63.81
23635;BME280;11994;51.038;16.974;2023-04-22T07:26:01;100053.33;;;14.00;62.83
23635;BME280;11994;51.038;16.974;2023-04-22T07:28:26;100056.20;;;13.94;62.86
23635;BME280;11994;51.038;16.974;2023-04-22T07:30:52;100059.06;;;14.01;63.07
23635;BME280;11994;51.038;16.974;2023-04-22T07:33:18;100056.09;;;14.10;62.96
23635;BME280;11994;51.038;16.974;2023-04-22T07:35:43;100057.84;;;14.19;62.49
23635;BME280;11994;51.038;16.974;2023-04-22T07:38:08;100055.89;;;14.33;62.53
23635;BME280;11994;51.038;16.974;2023-04-22T07:40:34;100053.38;;;14.38;62.35
23635;BME280;11994;51.038;16.974;2023-04-22T07:42:59;100054.24;;;14.46;62.53
23635;BME280;11994;51.038;16.974;2023-04-22T07:45:25;100056.13;;;14.52;61.00
23635;BME280;11994;51.038;16.974;2023-04-22T07:47:50;100056.40;;;14.49;61.84
23635;BME280;11994;51.038;16.974;2023-04-22T07:50:15;100055.42;;;14.64;61.99
23635;BME280;11994;51.038;16.974;2023-04-22T07:52:41;100053.90;;;14.79;61.35
23635;BME280;11994;51.038;16.974;2023-04-22T07:55:06;100054.49;;;14.81;60.87
23635;BME280;11994;51.038;16.974;2023-04-22T07:57:32;100052.38;;;14.82;61.16
23635;BME280;11994;51.038;16.974;2023-04-22T08:00:02;100049.29;;;14.84;60.65
23635;BME280;11994;51.038;16.974;2023-04-22T08:02:27;100045.22;;;14.88;61.15
23635;BME280;11994;51.038;16.974;2023-04-22T08:04:53;100038.06;;;15.10;60.66
23635;BME280;11994;51.038;16.974;2023-04-22T08:07:18;100038.48;;;15.28;60.13
23635;BME280;11994;51.038;16.974;2023-04-22T08:09:43;100038.45;;;15.45;59.91
23635;BME280;11994;51.038;16.974;2023-04-22T08:12:08;100036.64;;;15.53;58.72
23635;BME280;11994;51.038;16.974;2023-04-22T08:14:34;100037.73;;;15.52;58.07
23635;BME280;11994;51.038;16.974;2023-04-22T08:16:59;100034.86;;;15.57;57.69
23635;BME280;11994;51.038;16.974;2023-04-22T08:19:24;100038.27;;;15.67;58.14
23635;BME280;11994;51.038;16.974;2023-04-22T08:21:50;100040.32;;;15.84;57.85
23635;BME280;11994;51.038;16.974;2023-04-22T08:24:15;100037.48;;;15.95;57.30
23635;BME280;11994;51.038;16.974;2023-04-22T08:26:40;100039.92;;;16.06;57.29
23635;BME280;11994;51.038;16.974;2023-04-22T08:29:06;100043.38;;;16.18;56.98
23635;BME280;11994;51.038;16.974;2023-04-22T08:31:32;100041.04;;;16.30;56.08
23635;BME280;11994;51.038;16.974;2023-04-22T08:33:57;100041.54;;;16.37;56.40
23635;BME280;11994;51.038;16.974;2023-04-22T08:36:22;100040.48;;;16.48;56.20
23635;BME280;11994;51.038;16.974;2023-04-22T08:38:50;100041.02;;;16.52;54.89
23635;BME280;11994;51.038;16.974;2023-04-22T08:41:15;100037.06;;;16.50;55.36
23635;BME280;11994;51.038;16.974;2023-04-22T08:43:42;100032.16;;;16.52;55.62
23635;BME280;11994;51.038;16.974;2023-04-22T08:46:09;100036.91;;;16.63;54.59
23635;BME280;11994;51.038;16.974;2023-04-22T08:48:34;100036.00;;;16.67;53.89
23635;BME280;11994;51.038;16.974;2023-04-22T08:51:00;100036.11;;;16.75;53.30
23635;BME280;11994;51.038;16.974;2023-04-22T08:53:26;100032.20;;;16.75;53.25
23635;BME280;11994;51.038;16.974;2023-04-22T08:55:52;100027.82;;;16.81;52.28
23635;BME280;11994;51.038;16.974;2023-04-22T08:58:19;100027.42;;;16.89;51.53
23635;BME280;11994;51.038;16.974;2023-04-22T09:00:45;100031.91;;;16.98;51.45
23635;BME280;11994;51.038;16.974;2023-04-22T09:03:12;100027.38;;;17.09;52.23
23635;BME280;11994;51.038;16.974;2023-04-22T09:05:38;100028.20;;;17.24;52.43
23635;BME280;11994;51.038;16.974;2023-04-22T09:08:04;100030.78;;;17.35;51.40
23635;BME280;11994;51.038;16.974;2023-04-22T09:10:29;100029.64;;;17.40;50.06
23635;BME280;11994;51.038;16.974;2023-04-22T09:12:55;100030.02;;;17.43;50.57
23635;BME280;11994;51.038;16.974;2023-04-22T09:15:20;100028.06;;;17.53;48.33
23635;BME280;11994;51.038;16.974;2023-04-22T09:17:46;100026.33;;;17.55;48.57
23635;BME280;11994;51.038;16.974;2023-04-22T09:20:11;100027.27;;;17.64;49.21
23635;BME280;11994;51.038;16.974;2023-04-22T09:22:38;100029.83;;;17.72;49.93
23635;BME280;11994;51.038;16.974;2023-04-22T09:25:03;100026.15;;;17.84;50.57
23635;BME280;11994;51.038;16.974;2023-04-22T09:27:29;100023.51;;;18.02;49.51
23635;BME280;11994;51.038;16.974;2023-04-22T09:29:54;100019.51;;;18.07;48.89
23635;BME280;11994;51.038;16.974;2023-04-22T09:32:22;100022.33;;;18.10;47.24
23635;BME280;11994;51.038;16.974;2023-04-22T09:34:51;100020.14;;;18.08;47.49
23635;BME280;11994;51.038;16.974;2023-04-22T09:37:18;100017.02;;;18.16;47.72
23635;BME280;11994;51.038;16.974;2023-04-22T09:39:43;100017.17;;;18.29;47.41
23635;BME280;11994;51.038;16.974;2023-04-22T09:42:08;100014.13;;;18.33;48.22
23635;BME280;11994;51.038;16.974;2023-04-22T09:44:35;100013.36;;;18.43;49.02
23635;BME280;11994;51.038;16.974;2023-04-22T09:47:00;100009.41;;;18.58;49.07
23635;BME280;11994;51.038;16.974;2023-04-22T09:49:26;100005.58;;;18.75;48.27
23635;BME280;11994;51.038;16.974;2023-04-22T09:51:55;100005.12;;;18.79;48.11
23635;BME280;11994;51.038;16.974;2023-04-22T09:54:21;100002.86;;;18.84;47.00
23635;BME280;11994;51.038;16.974;2023-04-22T09:56:48;99999.20;;;18.78;48.02
23635;BME280;11994;51.038;16.974;2023-04-22T09:59:35;99999.13;;;18.82;47.84
23635;BME280;11994;51.038;16.974;2023-04-22T10:02:00;100001.89;;;18.86;46.18
23635;BME280;11994;51.038;16.974;2023-04-22T10:04:28;99998.90;;;18.88;45.62
23635;BME280;11994;51.038;16.974;2023-04-22T10:06:53;99997.10;;;18.91;44.23
23635;BME280;11994;51.038;16.974;2023-04-22T10:09:20;99991.63;;;19.00;43.07
23635;BME280;11994;51.038;16.974;2023-04-22T10:11:46;99990.16;;;18.98;43.25
23635;BME280;11994;51.038;16.974;2023-04-22T10:14:12;99992.51;;;19.03;44.24
23635;BME280;11994;51.038;16.974;2023-04-22T10:16:42;99992.98;;;19.09;43.93
23635;BME280;11994;51.038;16.974;2023-04-22T10:19:08;99994.89;;;19.18;44.13
23635;BME280;11994;51.038;16.974;2023-04-22T10:21:35;99988.55;;;19.27;41.79
23635;BME280;11994;51.038;16.974;2023-04-22T10:24:00;99980.91;;;19.24;42.33
23635;BME280;11994;51.038;16.974;2023-04-22T10:26:42;99983.96;;;19.32;41.84
23635;BME280;11994;51.038;16.974;2023-04-22T10:29:11;99983.30;;;19.37;39.57
23635;BME280;11994;51.038;16.974;2023-04-22T10:31:37;99982.95;;;19.34;38.93
23635;BME280;11994;51.038;16.974;2023-04-22T10:34:12;99979.52;;;19.38;40.90
23635;BME280;11994;51.038;16.974;2023-04-22T10:39:21;99978.52;;;19.56;38.60
23635;BME280;11994;51.038;16.974;2023-04-22T10:41:50;99978.03;;;19.55;38.43
23635;BME280;11994;51.038;16.974;2023-04-22T10:44:17;99971.87;;;19.52;39.25
23635;BME280;11994;51.038;16.974;2023-04-22T10:47:02;99971.29;;;19.55;39.47
23635;BME280;11994;51.038;16.974;2023-04-22T10:49:28;99963.40;;;19.56;38.12
23635;BME280;11994;51.038;16.974;2023-04-22T10:51:54;99964.17;;;19.58;37.07
23635;BME280;11994;51.038;16.974;2023-04-22T10:57:02;99958.29;;;19.59;37.87
23635;BME280;11994;51.038;16.974;2023-04-22T10:59:28;99956.14;;;19.67;35.41
23635;BME280;11994;51.038;16.974;2023-04-22T11:01:53;99956.63;;;19.62;37.06
23635;BME280;11994;51.038;16.974;2023-04-22T11:04:19;99949.66;;;19.66;38.34
23635;BME280;11994;51.038;16.974;2023-04-22T11:07:11;99952.20;;;19.76;39.71
23635;BME280;11994;51.038;16.974;2023-04-22T11:09:32;99946.20;;;19.86;38.82
23635;BME280;11994;51.038;16.974;2023-04-22T11:14:41;99938.73;;;19.91;36.51
23635;BME280;11994;51.038;16.974;2023-04-22T11:17:06;99934.67;;;19.85;37.32
23635;BME280;11994;51.038;16.974;2023-04-22T11:19:31;99933.01;;;19.89;38.03
23635;BME280;11994;51.038;16.974;2023-04-22T11:21:57;99930.21;;;19.91;36.39
23635;BME280;11994;51.038;16.974;2023-04-22T11:24:22;99932.15;;;19.97;36.84
23635;BME280;11994;51.038;16.974;2023-04-22T11:26:47;99928.56;;;20.00;36.49
23635;BME280;11994;51.038;16.974;2023-04-22T11:29:13;99925.52;;;19.97;37.34
23635;BME280;11994;51.038;16.974;2023-04-22T11:31:44;99925.39;;;20.08;37.83
23635;BME280;11994;51.038;16.974;2023-04-22T11:34:10;99922.33;;;20.16;37.00
23635;BME280;11994;51.038;16.974;2023-04-22T11:36:35;99914.44;;;20.15;38.08
23635;BME280;11994;51.038;16.974;2023-04-22T11:39:00;99912.34;;;20.17;37.79
23635;BME280;11994;51.038;16.974;2023-04-22T11:41:26;99913.41;;;20.22;36.25
23635;BME280;11994;51.038;16.974;2023-04-22T11:43:53;99915.68;;;20.12;34.68
23635;BME280;11994;51.038;16.974;2023-04-22T11:46:30;99912.89;;;19.98;34.84
23635;BME280;11994;51.038;16.974;2023-04-22T11:49:12;99910.71;;;19.88;34.16
23635;BME280;11994;51.038;16.974;2023-04-22T11:51:50;99908.91;;;19.83;34.90
23635;BME280;11994;51.038;16.974;2023-04-22T11:54:15;99910.27;;;19.84;34.19
23635;BME280;11994;51.038;16.974;2023-04-22T11:56:40;99910.23;;;19.82;35.32
23635;BME280;11994;51.038;16.974;2023-04-22T11:59:06;99913.56;;;19.85;34.18
23635;BME280;11994;51.038;16.974;2023-04-22T12:01:31;99909.36;;;19.85;35.55
23635;BME280;11994;51.038;16.974;2023-04-22T12:03:59;99904.45;;;19.86;36.04
23635;BME280;11994;51.038;16.974;2023-04-22T12:06:25;99904.63;;;19.91;34.43
23635;BME280;11994;51.038;16.974;2023-04-22T12:08:54;99900.69;;;19.84;34.58
23635;BME280;11994;51.038;16.974;2023-04-22T12:11:20;99897.91;;;19.86;36.23
23635;BME280;11994;51.038;16.974;2023-04-22T12:13:45;99897.61;;;19.93;35.65
23635;BME280;11994;51.038;16.974;2023-04-22T12:18:37;99894.73;;;19.90;36.19
23635;BME280;11994;51.038;16.974;2023-04-22T12:23:28;99889.38;;;19.99;36.90
23635;BME280;11994;51.038;16.974;2023-04-22T12:25:53;99896.21;;;20.08;34.67
23635;BME280;11994;51.038;16.974;2023-04-22T12:28:19;99889.40;;;20.07;35.01
23635;BME280;11994;51.038;16.974;2023-04-22T12:30:45;99885.64;;;19.99;35.43
23635;BME280;11994;51.038;16.974;2023-04-22T12:33:10;99889.14;;;20.03;35.25
23635;BME280;11994;51.038;16.974;2023-04-22T12:35:36;99887.10;;;20.07;35.67
23635;BME280;11994;51.038;16.974;2023-04-22T12:38:01;99875.66;;;20.13;35.52
23635;BME280;11994;51.038;16.974;2023-04-22T12:40:26;99876.48;;;20.20;35.63
23635;BME280;11994;51.038;16.974;2023-04-22T12:42:52;99874.96;;;20.26;36.12
23635;BME280;11994;51.038;16.974;2023-04-22T12:45:17;99874.17;;;20.32;34.10
23635;BME280;11994;51.038;16.974;2023-04-22T12:47:42;99862.75;;;20.17;34.59
23635;BME280;11994;51.038;16.974;2023-04-22T12:50:09;99856.94;;;20.06;35.86
23635;BME280;11994;51.038;16.974;2023-04-22T12:52:34;99853.36;;;20.06;36.26
23635;BME280;11994;51.038;16.974;2023-04-22T12:54:59;99850.73;;;20.09;35.80